Main page
METAR-TAF:

METAR-TAF

Airports :

Manchester–Boston Regional Airport

Manchester, New Hampshire, United States

latitude: 42-55-45N, longitude: 071-26-09W, elevation: 233 ft

Current weather observation

The report was made 56 minutes ago, at 02:53 UTC
Calm wind
Temperature 16°F
Humidity 73%
Pressure 30.43 in. Hg
Visibility: 10 miles
Clear sky

METAR: KMHT 080253Z 00000KT 10SM CLR M09/M13 A3043 RMK AO2 SLP325 T10941128 51013

Time: 22:49 (03:49 UTC)

Forecast

The report was made 4 hours and 29 minutes ago, at 23:20 UTC
Forecast valid from 08 at 00 UTC to 08 at 24 UTC
Wind 3 mph from variable directions
Visibility: 6 miles
Few clouds at a height of 5000 ft
From 08 at 1700 UTC
Wind 7 mph from the South
Visibility: 6 miles
Scattered clouds at a height of 25000 ft

TAF: KMHT 072320Z 0800/0824 VRB03KT P6SM FEW050 FM081700 19006KT P6SM SCT250

Weather observations and forecasts of more than 4000 airports (METAR and TAF reports).

The available stations are represented by yellow and red dots on the map.

Hover mouse over dot to see the name of the station.

Then click to see weather observations and forecasts.

To change the map : click on the green buttons with a black cross to zoom in, on the green button with a dash to zoom out, or on the green arrows for adjacent maps.


METAR-TAF: